Time;durP1;ratioP1;P1;durP2;ratioP2;P2;SDS_P1;SDS_P2;PMS_P1;PMS_P2;Temp;Humidity;BMP_temperature;BMP_pressure;BME280_temperature;BME280_humidity;BME280_pressure;Samples;Min_cycle;Max_cycle;Signal;HPM_P1;HPM_P2
2022/03/31 00:00:09;;;;;;;;;;;;;;;20.94;42.46;99943.50;4970484;28;4201;-58
2022/03/31 00:02:39;;;;;;;;;;;;;;;20.95;42.26;99952.88;4972003;28;4099;-59
2022/03/31 00:05:05;;;;;;;;;;;;;;;20.95;42.43;99950.00;4972869;28;4554;-59
2022/03/31 00:07:32;;;;;;;;;;;;;;;20.95;42.55;99942.09;4969392;28;4231;-59
2022/03/31 00:09:58;;;;;;;;;;;;;;;21.08;42.12;99948.94;4969421;28;4179;-58
2022/03/31 00:12:25;;;;;;;;;;;;;;;21.22;41.88;99948.63;4971270;28;4236;-59
2022/03/31 00:14:51;;;;;;;;;;;;;;;21.24;41.97;99955.16;4967533;28;4267;-58
2022/03/31 00:17:17;;;;;;;;;;;;;;;21.09;42.20;99944.66;4972679;28;4220;-58
2022/03/31 00:19:44;;;;;;;;;;;;;;;21.00;42.24;99954.47;4969876;28;3975;-59
2022/03/31 00:22:12;;;;;;;;;;;;;;;21.08;42.21;99948.94;4973176;28;5476;-58
2022/03/31 00:24:38;;;;;;;;;;;;;;;20.97;42.34;99950.78;4974686;28;5245;-59
2022/03/31 00:27:05;;;;;;;;;;;;;;;20.97;42.33;99955.81;4971963;28;4201;-58
2022/03/31 00:29:31;;;;;;;;;;;;;;;20.97;42.15;99950.06;4973007;28;4137;-58
2022/03/31 00:31:58;;;;;;;;;;;;;;;21.09;41.85;99951.13;4972703;28;4560;-59
2022/03/31 00:34:25;;;;;;;;;;;;;;;21.22;41.63;99957.25;4975268;28;5317;-59
2022/03/31 00:36:51;;;;;;;;;;;;;;;21.26;41.75;99957.38;4971936;28;4158;-59
2022/03/31 00:39:31;;;;;;;;;;;;;;;21.12;41.93;99949.06;4971419;28;5208;-59
2022/03/31 00:41:59;;;;;;;;;;;;;;;20.96;42.47;99951.44;4971125;28;4145;-58
2022/03/31 00:44:25;;;;;;;;;;;;;;;20.92;42.43;99947.06;4976636;28;4399;-58
2022/03/31 00:46:52;;;;;;;;;;;;;;;20.97;42.39;99944.31;4972727;28;4212;-58
2022/03/31 00:49:19;;;;;;;;;;;;;;;21.12;42.11;99943.31;4976849;28;4164;-59
2022/03/31 00:51:49;;;;;;;;;;;;;;;21.13;41.91;99936.13;4974192;28;4296;-59
2022/03/31 00:54:15;;;;;;;;;;;;;;;21.20;41.69;99937.78;4971918;28;4124;-58
2022/03/31 00:56:42;;;;;;;;;;;;;;;21.18;41.97;99937.72;4969362;28;4283;-59
2022/03/31 00:59:08;;;;;;;;;;;;;;;21.20;41.74;99937.03;4970605;28;4265;-59
2022/03/31 01:01:38;;;;;;;;;;;;;;;21.04;41.95;99946.69;4968056;28;4245;-58
2022/03/31 01:04:05;;;;;;;;;;;;;;;21.18;41.68;99934.84;4967545;28;4202;-59
2022/03/31 01:06:31;;;;;;;;;;;;;;;21.21;41.75;99942.13;4970654;28;4412;-59
2022/03/31 01:08:59;;;;;;;;;;;;;;;21.20;41.56;99940.66;4966762;28;5346;-58
2022/03/31 01:11:28;;;;;;;;;;;;;;;20.93;42.08;99939.88;4970566;28;4219;-59
2022/03/31 01:13:55;;;;;;;;;;;;;;;20.87;42.28;99933.97;4973971;28;4404;-59
2022/03/31 01:16:21;;;;;;;;;;;;;;;20.87;42.18;99930.38;4972716;28;4918;-59
2022/03/31 01:18:48;;;;;;;;;;;;;;;20.86;42.19;99940.38;4968695;28;4549;-58
2022/03/31 01:21:14;;;;;;;;;;;;;;;20.86;42.18;99940.38;4976805;28;4182;-59
2022/03/31 01:23:41;;;;;;;;;;;;;;;20.85;42.33;99936.06;4971981;28;4218;-58
2022/03/31 01:26:10;;;;;;;;;;;;;;;20.86;42.36;99935.38;4967600;28;4167;-58
2022/03/31 01:28:38;;;;;;;;;;;;;;;20.86;42.38;99932.47;4968804;28;4322;-59
2022/03/31 01:31:04;;;;;;;;;;;;;;;20.87;42.30;99936.84;4967074;28;4548;-58
2022/03/31 01:33:31;;;;;;;;;;;;;;;21.10;41.86;99937.50;4970943;28;5830;-59
2022/03/31 01:35:57;;;;;;;;;;;;;;;20.90;42.06;99935.50;4972461;28;4209;-58
2022/03/31 01:38:23;;;;;;;;;;;;;;;20.88;42.26;99938.31;4969398;28;4346;-59
2022/03/31 01:40:50;;;;;;;;;;;;;;;20.85;42.28;99939.66;4973275;28;4171;-58
2022/03/31 01:43:16;;;;;;;;;;;;;;;20.86;42.31;99938.25;4971216;28;4363;-58
2022/03/31 01:45:43;;;;;;;;;;;;;;;20.86;42.31;99938.25;4973675;28;4375;-58
2022/03/31 01:48:09;;;;;;;;;;;;;;;21.05;42.00;99939.53;4973059;28;4299;-58
2022/03/31 01:50:36;;;;;;;;;;;;;;;20.92;42.29;99938.44;4970370;28;5038;-58
2022/03/31 01:53:02;;;;;;;;;;;;;;;20.89;42.34;99945.53;4971995;28;4218;-59
2022/03/31 01:55:29;;;;;;;;;;;;;;;20.89;42.29;99942.66;4967710;28;5339;-59
2022/03/31 01:57:55;;;;;;;;;;;;;;;20.87;42.22;99942.59;4972646;28;4198;-57
2022/03/31 02:00:21;;;;;;;;;;;;;;;20.88;42.27;99949.81;4973230;28;4203;-59
2022/03/31 02:02:48;;;;;;;;;;;;;;;20.90;42.20;99952.75;4968478;28;4286;-59
2022/03/31 02:05:14;;;;;;;;;;;;;;;20.89;42.14;99947.66;4967893;28;4039;-58
2022/03/31 02:07:41;;;;;;;;;;;;;;;21.11;41.83;99948.31;4973445;28;5348;-59
2022/03/31 02:10:07;;;;;;;;;;;;;;;21.23;41.70;99944.31;4968140;28;4281;-59
2022/03/31 02:12:34;;;;;;;;;;;;;;;21.24;41.55;99942.94;4967594;28;4128;-59
2022/03/31 02:15:01;;;;;;;;;;;;;;;21.21;41.70;99945.00;4969161;28;5262;-59
2022/03/31 02:17:28;;;;;;;;;;;;;;;21.23;41.46;99947.94;4976611;28;4091;-58
2022/03/31 02:19:54;;;;;;;;;;;;;;;21.25;41.46;99941.50;4971706;28;4216;-59
2022/03/31 02:22:20;;;;;;;;;;;;;;;21.24;41.53;99949.41;4965717;28;6418;-59
2022/03/31 02:24:48;;;;;;;;;;;;;;;20.95;42.01;99947.84;4972077;28;4262;-59
2022/03/31 02:27:14;;;;;;;;;;;;;;;21.15;41.78;99944.84;4973339;28;5237;-58
2022/03/31 02:29:40;;;;;;;;;;;;;;;20.92;42.06;99944.19;4971624;28;4068;-59
2022/03/31 02:32:07;;;;;;;;;;;;;;;20.88;42.14;99941.19;4971663;28;4244;-58
2022/03/31 02:34:34;;;;;;;;;;;;;;;20.89;42.22;99944.78;4978619;28;4336;-58
2022/03/31 02:37:01;;;;;;;;;;;;;;;21.10;41.79;99946.13;4975059;28;5608;-59
2022/03/31 02:39:30;;;;;;;;;;;;;;;21.22;41.43;99951.50;4977970;28;5351;-58
2022/03/31 02:42:01;;;;;;;;;;;;;;;21.22;41.40;99949.34;4978445;28;5558;-58
2022/03/31 02:44:27;;;;;;;;;;;;;;;21.19;41.73;99947.06;4975066;28;4082;-59
2022/03/31 02:46:54;;;;;;;;;;;;;;;21.21;41.46;99945.00;4972224;28;4289;-58
2022/03/31 02:49:20;;;;;;;;;;;;;;;21.15;41.67;99946.97;4978205;28;5288;-58
2022/03/31 02:51:47;;;;;;;;;;;;;;;21.14;41.87;99931.84;4972918;28;4256;-58
2022/03/31 02:56:58;;;;;;;;;;;;;;;21.22;41.56;99939.97;4962710;28;4451;-59
2022/03/31 02:59:25;;;;;;;;;;;;;;;21.23;41.45;99939.28;4967182;28;4299;-58
2022/03/31 03:01:51;;;;;;;;;;;;;;;21.14;41.84;99940.47;4961410;28;4245;-58
2022/03/31 03:04:18;;;;;;;;;;;;;;;20.96;42.11;99937.06;4959662;28;4234;-59
2022/03/31 03:06:44;;;;;;;;;;;;;;;20.88;42.10;99932.53;4965060;28;4245;-59
2022/03/31 03:09:11;;;;;;;;;;;;;;;20.87;42.17;99936.84;4968482;28;5132;-58
2022/03/31 03:11:37;;;;;;;;;;;;;;;20.89;42.06;99939.78;4964013;28;4125;-59
2022/03/31 03:14:04;;;;;;;;;;;;;;;20.92;42.18;99934.81;4972940;28;4241;-59
2022/03/31 03:16:30;;;;;;;;;;;;;;;20.89;42.04;99934.03;4973199;28;4176;-58
2022/03/31 03:18:57;;;;;;;;;;;;;;;20.88;42.21;99941.19;4973959;28;4346;-59
2022/03/31 03:21:23;;;;;;;;;;;;;;;20.86;42.10;99935.38;4976914;28;4009;-59
2022/03/31 03:23:50;;;;;;;;;;;;;;;20.88;42.28;99935.41;4971927;28;4559;-58
2022/03/31 03:26:16;;;;;;;;;;;;;;;20.89;42.17;99939.03;4966528;28;5268;-59
2022/03/31 03:28:42;;;;;;;;;;;;;;;20.88;42.12;99943.31;4974188;28;4190;-59
2022/03/31 03:31:09;;;;;;;;;;;;;;;21.07;41.69;99941.72;4971387;28;4226;-59
2022/03/31 03:33:35;;;;;;;;;;;;;;;20.92;41.90;99941.31;4972173;28;4178;-58
2022/03/31 03:36:03;;;;;;;;;;;;;;;20.89;41.98;99936.91;4977263;28;4209;-59
2022/03/31 03:38:31;;;;;;;;;;;;;;;21.07;41.66;99935.94;4974517;28;4280;-58
2022/03/31 03:40:57;;;;;;;;;;;;;;;21.02;41.47;99928.63;4975857;28;4556;-59
2022/03/31 03:43:23;;;;;;;;;;;;;;;20.91;41.93;99925.47;4973542;28;5389;-59
2022/03/31 03:45:50;;;;;;;;;;;;;;;20.88;42.02;99926.78;4975472;28;4139;-58
2022/03/31 03:48:16;;;;;;;;;;;;;;;20.88;41.96;99921.03;4970833;28;4314;-59
2022/03/31 03:50:43;;;;;;;;;;;;;;;20.88;41.85;99923.19;4971632;28;4502;-58
2022/03/31 03:53:09;;;;;;;;;;;;;;;20.88;41.83;99923.91;4969730;28;4228;-59
2022/03/31 03:55:36;;;;;;;;;;;;;;;20.88;41.81;99923.91;4970528;28;4275;-58
2022/03/31 03:58:03;;;;;;;;;;;;;;;20.90;41.94;99920.38;4971864;28;4176;-58
2022/03/31 04:00:29;;;;;;;;;;;;;;;20.88;41.90;99923.91;4973357;28;4096;-58
2022/03/31 04:02:55;;;;;;;;;;;;;;;20.91;41.95;99925.47;4969479;28;5027;-59
2022/03/31 04:05:22;;;;;;;;;;;;;;;20.93;41.82;99930.53;4972937;28;4266;-58
2022/03/31 04:07:48;;;;;;;;;;;;;;;21.00;41.69;99920.66;4970987;28;4396;-59
2022/03/31 04:10:15;;;;;;;;;;;;;;;20.91;42.03;99927.59;4968971;28;4211;-59
2022/03/31 04:12:42;;;;;;;;;;;;;;;20.87;41.85;99913.81;4973845;28;4080;-59
2022/03/31 04:15:08;;;;;;;;;;;;;;;20.89;41.89;99911.00;4974464;28;4623;-58
2022/03/31 04:17:35;;;;;;;;;;;;;;;20.92;41.87;99923.31;4974648;28;5308;-59
2022/03/31 04:20:02;;;;;;;;;;;;;;;20.95;41.96;99913.31;4975246;28;4030;-59
2022/03/31 04:22:28;;;;;;;;;;;;;;;20.93;41.68;99916.84;4972512;28;4070;-59
2022/03/31 04:24:54;;;;;;;;;;;;;;;20.93;41.71;99922.63;4969268;28;4169;-59
2022/03/31 04:27:21;;;;;;;;;;;;;;;21.12;41.24;99920.28;4975948;28;4127;-59
2022/03/31 04:29:47;;;;;;;;;;;;;;;21.08;41.27;99925.91;4973129;28;4304;-58
2022/03/31 04:32:14;;;;;;;;;;;;;;;21.11;41.27;99930.31;4974055;28;4148;-59
2022/03/31 04:34:40;;;;;;;;;;;;;;;20.88;41.52;99918.16;4966037;28;4229;-59
2022/03/31 04:37:06;;;;;;;;;;;;;;;21.11;41.37;99918.81;4961464;28;4205;-59
2022/03/31 04:39:33;;;;;;;;;;;;;;;21.01;41.27;99922.13;4969070;28;4182;-59
2022/03/31 04:41:59;;;;;;;;;;;;;;;21.01;41.35;99921.41;4968418;28;4116;-59
2022/03/31 04:44:28;;;;;;;;;;;;;;;21.01;41.47;99927.16;4970850;28;4105;-58
2022/03/31 04:46:55;;;;;;;;;;;;;;;20.89;41.68;99919.66;4970939;28;4150;-59
2022/03/31 04:49:21;;;;;;;;;;;;;;;21.00;41.55;99937.19;4963487;28;4094;-59
2022/03/31 04:51:47;;;;;;;;;;;;;;;20.92;41.66;99932.66;4968547;28;4219;-59
2022/03/31 04:54:14;;;;;;;;;;;;;;;20.90;41.87;99931.88;4961799;28;4177;-59
2022/03/31 04:56:40;;;;;;;;;;;;;;;20.92;41.70;99931.94;4959020;28;4254;-58
2022/03/31 04:59:06;;;;;;;;;;;;;;;20.92;41.96;99935.53;4969887;28;4256;-64
2022/03/31 05:01:33;;;;;;;;;;;;;;;20.86;42.23;99932.47;4968156;28;4448;-52
2022/03/31 05:03:59;;;;;;;;;;;;;;;20.90;42.42;99932.59;4970303;28;5268;-60
2022/03/31 05:06:26;;;;;;;;;;;;;;;20.93;42.36;99928.38;4965982;28;5469;-60
2022/03/31 05:08:52;;;;;;;;;;;;;;;21.04;42.16;99934.44;4971133;28;4179;-58
2022/03/31 05:11:19;;;;;;;;;;;;;;;21.04;42.30;99943.81;4959957;28;4283;-54
2022/03/31 05:13:45;;;;;;;;;;;;;;;21.19;42.20;99939.19;4974014;28;4242;-55
2022/03/31 05:16:12;;;;;;;;;;;;;;;21.21;42.32;99939.25;4973998;28;4159;-57
2022/03/31 05:18:39;;;;;;;;;;;;;;;21.14;42.46;99943.34;4963715;28;5364;-54
2022/03/31 05:21:05;;;;;;;;;;;;;;;21.06;42.80;99946.75;4971758;28;5276;-54
2022/03/31 05:23:31;;;;;;;;;;;;;;;21.07;42.71;99935.94;4976480;28;4142;-53
2022/03/31 05:25:58;;;;;;;;;;;;;;;21.08;42.83;99943.19;4975824;28;4270;-57
2022/03/31 05:28:24;;;;;;;;;;;;;;;21.08;43.54;99946.06;4975567;28;5263;-50
2022/03/31 05:30:50;;;;;;;;;;;;;;;21.08;43.22;99948.94;4971560;28;4257;-55
2022/03/31 05:33:17;;;;;;;;;;;;;;;20.93;42.14;99950.66;4968649;28;4391;-53
2022/03/31 05:35:43;;;;;;;;;;;;;;;20.84;40.92;99941.06;4972400;28;4112;-55
2022/03/31 05:38:10;;;;;;;;;;;;;;;20.84;40.02;99940.31;4968180;28;4268;-53
2022/03/31 05:40:37;;;;;;;;;;;;;;;20.72;38.91;99934.94;4964211;28;4317;-51
2022/03/31 05:43:03;;;;;;;;;;;;;;;20.82;38.21;99946.00;4972331;28;4170;-52
2022/03/31 05:45:29;;;;;;;;;;;;;;;20.84;37.95;99949.69;4974035;28;4207;-54
2022/03/31 05:47:56;;;;;;;;;;;;;;;20.81;38.19;99948.16;4971037;28;4224;-53
2022/03/31 05:50:22;;;;;;;;;;;;;;;20.83;38.26;99947.50;4969650;28;4265;-53
2022/03/31 05:52:48;;;;;;;;;;;;;;;20.83;38.03;99938.88;4965356;28;5512;-54
2022/03/31 05:55:15;;;;;;;;;;;;;;;20.70;38.01;99946.38;4971768;28;4181;-56
2022/03/31 05:57:42;;;;;;;;;;;;;;;20.78;37.29;99952.41;4963446;28;4146;-54
2022/03/31 06:00:10;;;;;;;;;;;;;;;20.90;36.50;99946.25;4968641;28;4286;-51
2022/03/31 06:02:36;;;;;;;;;;;;;;;20.96;36.03;99955.09;4974450;28;4257;-56
2022/03/31 06:05:15;;;;;;;;;;;;;;;21.02;35.63;99948.75;4975188;28;4199;-55
2022/03/31 06:07:41;;;;;;;;;;;;;;;21.08;35.40;99957.59;4976225;28;5222;-56
2022/03/31 06:10:08;;;;;;;;;;;;;;;21.09;34.90;99956.16;4978752;28;4176;-51
2022/03/31 06:12:34;;;;;;;;;;;;;;;21.21;35.17;99956.53;4978466;28;4274;-50
2022/03/31 06:15:04;;;;;;;;;;;;;;;21.21;35.65;99962.28;4978005;28;5405;-54
2022/03/31 06:17:30;;;;;;;;;;;;;;;21.23;36.03;99955.84;4979087;28;5300;-53
2022/03/31 06:19:56;;;;;;;;;;;;;;;21.14;34.36;99960.63;4978267;28;4526;-60
2022/03/31 06:22:23;;;;;;;;;;;;;;;20.34;29.76;99963.19;4979335;28;4066;-55
2022/03/31 06:24:49;;;;;;;;;;;;;;;20.62;30.83;99951.91;4974320;28;4308;-52
2022/03/31 06:27:16;;;;;;;;;;;;;;;20.92;33.56;99947.06;4980094;28;5242;-54
2022/03/31 06:29:45;;;;;;;;;;;;;;;21.03;34.67;99958.88;4975448;28;4284;-56
2022/03/31 06:32:12;;;;;;;;;;;;;;;20.99;33.57;99955.88;4980268;28;4180;-53
2022/03/31 06:34:39;;;;;;;;;;;;;;;21.01;33.81;99958.81;4975349;28;5300;-49
2022/03/31 06:37:05;;;;;;;;;;;;;;;21.08;34.45;99948.94;4979675;28;4219;-50
2022/03/31 06:39:32;;;;;;;;;;;;;;;21.10;35.40;99955.50;4973492;28;4308;-51
2022/03/31 06:41:58;;;;;;;;;;;;;;;21.16;35.07;99957.81;4979051;28;4249;-52
2022/03/31 06:44:24;;;;;;;;;;;;;;;21.20;35.11;99980.97;4979942;28;4202;-54
2022/03/31 06:46:51;;;;;;;;;;;;;;;21.22;35.11;99969.50;4980074;28;5449;-54
2022/03/31 06:49:18;;;;;;;;;;;;;;;21.21;35.73;99973.81;4977071;28;4430;-53
2022/03/31 06:51:46;;;;;;;;;;;;;;;21.29;35.33;99974.03;4981584;28;5299;-54
2022/03/31 06:54:12;;;;;;;;;;;;;;;21.22;34.75;99975.25;4980263;28;4261;-52
2022/03/31 06:56:39;;;;;;;;;;;;;;;21.21;34.13;99964.41;4979260;28;5315;-54
2022/03/31 06:59:05;;;;;;;;;;;;;;;21.21;35.12;99964.41;4977175;28;4553;-53
2022/03/31 07:01:32;;;;;;;;;;;;;;;21.20;35.08;99965.84;4979476;28;4590;-51
2022/03/31 07:03:58;;;;;;;;;;;;;;;21.11;36.81;99964.84;4978368;28;4194;-51
2022/03/31 07:06:25;;;;;;;;;;;;;;;21.10;37.25;99969.88;4977090;28;4272;-53
2022/03/31 07:08:51;;;;;;;;;;;;;;;21.10;37.34;99957.66;4976360;28;4059;-50
2022/03/31 07:11:18;;;;;;;;;;;;;;;21.13;37.49;99959.16;4978318;28;4184;-50
2022/03/31 07:13:44;;;;;;;;;;;;;;;21.24;37.73;99966.69;4979705;28;5188;-58
2022/03/31 07:16:11;;;;;;;;;;;;;;;21.09;37.56;99968.41;4977399;28;4216;-54
2022/03/31 07:18:37;;;;;;;;;;;;;;;21.12;37.63;99972.09;4976063;28;4630;-52
2022/03/31 07:21:04;;;;;;;;;;;;;;;21.07;37.98;99964.75;4977617;28;4148;-50
2022/03/31 07:23:30;;;;;;;;;;;;;;;21.21;37.83;99964.41;4978964;28;5514;-52
2022/03/31 07:25:57;;;;;;;;;;;;;;;21.07;38.46;99965.50;4971122;28;4213;-55
2022/03/31 07:28:23;;;;;;;;;;;;;;;21.04;38.47;99954.59;4975222;28;4248;-54
2022/03/31 07:30:50;;;;;;;;;;;;;;;21.04;38.60;99963.22;4976923;28;6299;-55
2022/03/31 07:33:18;;;;;;;;;;;;;;;21.31;38.16;99959.69;4976759;28;5734;-52
2022/03/31 07:35:47;;;;;;;;;;;;;;;21.16;38.49;99946.28;4977200;28;4195;-56
2022/03/31 07:38:14;;;;;;;;;;;;;;;21.19;38.82;99944.19;4974529;28;4313;-52
2022/03/31 07:40:40;;;;;;;;;;;;;;;21.19;38.63;99944.97;4978351;28;4290;-54
2022/03/31 07:43:06;;;;;;;;;;;;;;;21.12;38.82;99943.31;4973651;28;5323;-52
2022/03/31 07:45:36;;;;;;;;;;;;;;;21.40;38.41;99939.75;4975670;28;4431;-50
2022/03/31 07:48:03;;;;;;;;;;;;;;;21.19;38.95;99953.59;4976566;28;5398;-52
2022/03/31 07:50:29;;;;;;;;;;;;;;;21.19;38.92;99947.84;4979745;28;4212;-50
2022/03/31 07:52:55;;;;;;;;;;;;;;;21.31;38.70;99956.81;4976913;28;4557;-60
2022/03/31 07:55:22;;;;;;;;;;;;;;;21.40;38.66;99951.28;4978644;28;5310;-51
2022/03/31 07:57:49;;;;;;;;;;;;;;;21.43;38.66;99947.06;4976020;28;4250;-52
2022/03/31 08:00:15;;;;;;;;;;;;;;;21.50;38.85;99958.06;4978466;28;4308;-60
2022/03/31 08:02:43;;;;;;;;;;;;;;;21.58;38.96;99956.81;4977488;28;4252;-57
2022/03/31 08:05:09;;;;;;;;;;;;;;;21.29;38.69;99951.00;4974835;28;5156;-60
2022/03/31 08:07:36;;;;;;;;;;;;;;;21.13;37.13;99956.28;4975608;28;4222;-60
2022/03/31 08:10:03;;;;;;;;;;;;;;;21.19;38.41;99961.47;4977349;28;5179;-55
2022/03/31 08:12:29;;;;;;;;;;;;;;;21.30;38.86;99960.34;4967548;28;4636;-51
2022/03/31 08:14:56;;;;;;;;;;;;;;;21.31;38.88;99959.69;4975096;28;5531;-59
2022/03/31 08:17:23;;;;;;;;;;;;;;;21.34;39.21;99958.31;4973731;28;4304;-53
2022/03/31 08:19:49;;;;;;;;;;;;;;;21.40;39.12;99959.94;4973592;28;4087;-51
2022/03/31 08:22:17;;;;;;;;;;;;;;;21.41;39.26;99955.66;4974315;28;4266;-49
2022/03/31 08:24:44;;;;;;;;;;;;;;;21.40;39.34;99954.91;4974548;28;4301;-57
2022/03/31 08:27:10;;;;;;;;;;;;;;;21.36;38.87;99954.03;4969567;28;4181;-58
2022/03/31 08:29:37;;;;;;;;;;;;;;;21.33;38.82;99954.00;4970581;28;4256;-56
2022/03/31 08:32:04;;;;;;;;;;;;;;;21.40;39.26;99954.91;4976660;28;4752;-57
2022/03/31 08:34:31;;;;;;;;;;;;;;;21.46;39.48;99962.97;4976355;28;4252;-55
2022/03/31 08:36:57;;;;;;;;;;;;;;;21.46;39.50;99951.47;4977972;28;4606;-53
2022/03/31 08:39:24;;;;;;;;;;;;;;;21.51;39.63;99965.31;4975703;28;4244;-57
2022/03/31 08:41:50;;;;;;;;;;;;;;;21.50;40.00;99951.56;4975437;28;5434;-57
2022/03/31 08:44:18;;;;;;;;;;;;;;;21.53;40.00;99956.72;4974525;28;4386;-56
2022/03/31 08:46:45;;;;;;;;;;;;;;;21.52;40.26;99948.75;4977940;28;5288;-58
2022/03/31 08:49:12;;;;;;;;;;;;;;;21.57;40.18;99950.31;4972257;28;5248;-57
2022/03/31 08:51:39;;;;;;;;;;;;;;;21.57;40.68;99949.59;4973015;28;4146;-55
2022/03/31 08:54:05;;;;;;;;;;;;;;;21.61;40.64;99953.31;4973880;28;5239;-57
2022/03/31 08:56:32;;;;;;;;;;;;;;;21.62;41.06;99957.66;4974285;28;4313;-55
2022/03/31 08:59:18;;;;;;;;;;;;;;;21.62;40.95;99963.41;4973370;28;4196;-57
2022/03/31 09:01:45;;;;;;;;;;;;;;;21.62;41.32;99954.78;4975848;28;4239;-58
2022/03/31 09:04:18;;;;;;;;;;;;;;;21.63;41.50;99941.84;4972371;28;5351;-56
2022/03/31 09:06:44;;;;;;;;;;;;;;;21.72;41.71;99934.16;4973828;28;4013;-58
2022/03/31 09:09:11;;;;;;;;;;;;;;;21.73;41.89;99944.25;4967775;28;4236;-58
2022/03/31 09:11:37;;;;;;;;;;;;;;;21.71;41.93;99944.22;4975444;28;4298;-58
2022/03/31 09:14:15;;;;;;;;;;;;;;;21.59;42.51;99950.38;4977082;28;4226;-52
2022/03/31 09:16:43;;;;;;;;;;;;;;;21.62;42.51;99931.00;4969786;28;3998;-53
2022/03/31 09:19:10;;;;;;;;;;;;;;;21.61;43.45;99927.41;4970777;28;4149;-54
2022/03/31 09:21:49;;;;;;;;;;;;;;;21.63;43.69;99924.56;4974965;28;4161;-55
2022/03/31 09:24:16;;;;;;;;;;;;;;;21.63;43.80;99930.34;4973224;28;4181;-56
2022/03/31 09:26:46;;;;;;;;;;;;;;;21.52;43.62;99943.00;4969804;28;4091;-52
2022/03/31 09:29:13;;;;;;;;;;;;;;;21.51;43.99;99941.53;4970291;28;4091;-56
2022/03/31 09:31:40;;;;;;;;;;;;;;;21.52;43.78;99937.97;4971662;28;4059;-56
2022/03/31 09:34:07;;;;;;;;;;;;;;;21.48;44.54;99931.34;4972578;28;4209;-55
2022/03/31 09:36:33;;;;;;;;;;;;;;;21.47;44.64;99936.38;4970629;28;4252;-55
2022/03/31 09:39:00;;;;;;;;;;;;;;;21.61;44.34;99938.19;4969632;28;4211;-55
2022/03/31 09:41:27;;;;;;;;;;;;;;;21.55;44.42;99944.50;4976067;28;4297;-54
2022/03/31 09:43:55;;;;;;;;;;;;;;;21.53;44.66;99955.97;4972854;28;4253;-54
2022/03/31 09:46:25;;;;;;;;;;;;;;;21.59;44.23;99941.75;4969915;28;4163;-67
2022/03/31 09:48:57;;;;;;;;;;;;;;;21.60;44.68;99942.47;4975332;28;4236;-57
2022/03/31 09:51:24;;;;;;;;;;;;;;;21.64;44.93;99939.69;4976517;28;4032;-57
2022/03/31 09:53:51;;;;;;;;;;;;;;;21.70;44.47;99929.06;4974613;28;4126;-57
2022/03/31 09:56:18;;;;;;;;;;;;;;;21.67;44.86;99924.69;4979307;28;5246;-56
2022/03/31 09:58:45;;;;;;;;;;;;;;;21.71;45.01;99924.03;4976495;28;3968;-57
2022/03/31 10:01:11;;;;;;;;;;;;;;;21.71;44.80;99924.75;4973591;28;4437;-57
2022/03/31 10:03:37;;;;;;;;;;;;;;;21.67;44.52;99916.03;4974813;28;4168;-50
2022/03/31 10:06:12;;;;;;;;;;;;;;;21.74;44.51;99929.19;4966408;28;5273;-54
2022/03/31 10:08:42;;;;;;;;;;;;;;;21.68;44.63;99929.00;4973641;28;4163;-54
2022/03/31 10:11:14;;;;;;;;;;;;;;;21.58;43.70;99925.88;4973276;28;5330;-57
2022/03/31 10:13:42;;;;;;;;;;;;;;;21.66;44.18;99928.97;4972769;28;5690;-59
2022/03/31 10:16:09;;;;;;;;;;;;;;;21.67;43.00;99918.91;4975044;28;4371;-56
2022/03/31 10:18:36;;;;;;;;;;;;;;;21.63;43.06;99918.81;4971309;28;6332;-56
2022/03/31 10:21:02;;;;;;;;;;;;;;;21.59;43.58;99912.94;4971094;28;5334;-57
2022/03/31 10:26:24;;;;;;;;;;;;;;;21.68;41.87;99917.50;4965308;28;4538;-58
2022/03/31 10:28:54;;;;;;;;;;;;;;;21.72;41.84;99903.19;4972619;28;4366;-57
2022/03/31 10:31:21;;;;;;;;;;;;;;;21.69;42.14;99904.56;4972253;28;4176;-54
2022/03/31 10:33:51;;;;;;;;;;;;;;;21.66;42.49;99903.03;4973284;28;4516;-52
2022/03/31 10:36:21;;;;;;;;;;;;;;;21.74;42.17;99903.25;4977030;28;4624;-56
2022/03/31 10:38:55;;;;;;;;;;;;;;;21.68;41.95;99900.22;4974703;28;4614;-61
2022/03/31 10:41:28;;;;;;;;;;;;;;;21.28;35.71;99914.22;4974086;28;4224;-59
2022/03/31 10:43:57;;;;;;;;;;;;;;;21.28;34.68;99903.47;4983062;28;4421;-58
2022/03/31 10:46:23;;;;;;;;;;;;;;;21.45;35.79;99898.16;4974944;28;4256;-60
2022/03/31 10:48:50;;;;;;;;;;;;;;;21.52;37.08;99903.41;4972049;28;4199;-57
2022/03/31 10:51:17;;;;;;;;;;;;;;;21.51;36.92;99901.22;4974487;28;4154;-55
2022/03/31 10:53:48;;;;;;;;;;;;;;;21.63;39.11;99890.00;4941676;28;968639;-54
2022/03/31 10:56:19;;;;;;;;;;;;;;;21.64;39.10;99894.34;4977894;28;4347;-57
2022/03/31 10:58:45;;;;;;;;;;;;;;;21.75;39.42;99901.81;4973851;28;4265;-57
2022/03/31 11:01:11;;;;;;;;;;;;;;;21.81;39.64;99909.19;4978835;28;4207;-57
2022/03/31 11:03:38;;;;;;;;;;;;;;;21.81;39.77;99891.88;4980641;28;4473;-52
2022/03/31 11:06:05;;;;;;;;;;;;;;;21.84;39.82;99890.50;4963558;28;5294;-57
2022/03/31 11:08:39;;;;;;;;;;;;;;;21.87;39.87;99897.78;4981358;28;4477;-57
2022/03/31 11:11:05;;;;;;;;;;;;;;;21.92;40.07;99891.44;4978530;28;4589;-57
2022/03/31 11:13:32;;;;;;;;;;;;;;;21.94;40.13;99887.88;4976533;28;4061;-57
2022/03/31 11:15:58;;;;;;;;;;;;;;;21.95;40.09;99878.56;4977269;28;6102;-55
2022/03/31 11:18:24;;;;;;;;;;;;;;;21.96;40.20;99879.28;4977761;28;4019;-56
2022/03/31 11:20:55;;;;;;;;;;;;;;;21.97;40.12;99880.75;4975961;28;4200;-56
2022/03/31 11:23:21;;;;;;;;;;;;;;;21.96;40.02;99873.50;4978343;28;4422;-58
2022/03/31 11:25:47;;;;;;;;;;;;;;;21.75;36.16;99873.00;4981784;28;5304;-58
2022/03/31 11:28:14;;;;;;;;;;;;;;;21.70;35.18;99859.94;4979726;28;4365;-58
2022/03/31 11:30:40;;;;;;;;;;;;;;;21.75;36.96;99878.78;4976002;28;4703;-57
2022/03/31 11:33:10;;;;;;;;;;;;;;;21.77;38.36;99868.72;4975281;28;4190;-55
2022/03/31 11:35:37;;;;;;;;;;;;;;;21.82;39.35;99864.53;4978070;28;5359;-57
2022/03/31 11:38:16;;;;;;;;;;;;;;;21.91;39.36;99864.03;4969922;28;5371;-55
2022/03/31 11:40:43;;;;;;;;;;;;;;;21.88;39.79;99865.41;4974171;28;5664;-54
2022/03/31 11:43:11;;;;;;;;;;;;;;;21.92;39.94;99861.88;4974420;28;4558;-55
2022/03/31 11:45:39;;;;;;;;;;;;;;;21.97;39.91;99863.47;4975906;28;5391;-54
2022/03/31 11:48:12;;;;;;;;;;;;;;;21.96;39.76;99859.09;4975228;28;4756;-56
2022/03/31 11:50:50;;;;;;;;;;;;;;;21.89;40.49;99858.22;4974388;28;5397;-54
2022/03/31 11:53:34;;;;;;;;;;;;;;;21.85;40.39;99858.13;4964852;28;4162;-57
2022/03/31 11:56:03;;;;;;;;;;;;;;;21.67;38.43;99864.19;4967097;28;4672;-58
2022/03/31 11:58:30;;;;;;;;;;;;;;;21.79;39.77;99860.13;4973878;28;4440;-56
2022/03/31 12:00:56;;;;;;;;;;;;;;;21.90;40.23;99856.09;4972381;28;4454;-55
2022/03/31 12:03:22;;;;;;;;;;;;;;;21.87;40.35;99858.16;4975283;28;4191;-57
2022/03/31 12:05:53;;;;;;;;;;;;;;;21.91;40.52;99860.44;4961842;28;5420;-57
2022/03/31 12:08:20;;;;;;;;;;;;;;;21.98;40.80;99869.94;4969682;28;4517;-58
2022/03/31 12:10:51;;;;;;;;;;;;;;;21.99;41.04;99866.41;4975089;28;4310;-59
2022/03/31 12:13:18;;;;;;;;;;;;;;;22.04;40.65;99856.41;4974225;28;4573;-58
2022/03/31 12:15:44;;;;;;;;;;;;;;;22.08;40.97;99873.81;4977498;28;5503;-51
2022/03/31 12:18:12;;;;;;;;;;;;;;;22.13;41.12;99866.72;4971966;28;5513;-51
2022/03/31 12:20:38;;;;;;;;;;;;;;;22.12;40.89;99864.50;4978105;28;4077;-56
2022/03/31 12:23:17;;;;;;;;;;;;;;;22.04;40.82;99861.47;4963331;28;5315;-52
2022/03/31 12:25:44;;;;;;;;;;;;;;;21.93;40.84;99857.59;4966590;28;4233;-53
2022/03/31 12:28:10;;;;;;;;;;;;;;;21.93;40.80;99849.66;4972122;28;4313;-55
2022/03/31 12:30:40;;;;;;;;;;;;;;;21.92;40.99;99856.13;4973371;28;5431;-55
2022/03/31 12:33:20;;;;;;;;;;;;;;;21.93;40.69;99857.59;4973209;28;5386;-56
2022/03/31 12:35:50;;;;;;;;;;;;;;;21.92;40.57;99850.34;4970690;28;4668;-51
2022/03/31 12:38:16;;;;;;;;;;;;;;;21.93;41.08;99846.06;4969296;28;4075;-58
2022/03/31 12:40:43;;;;;;;;;;;;;;;21.92;41.03;99844.59;4966193;28;4198;-58
2022/03/31 12:43:10;;;;;;;;;;;;;;;22.00;41.00;99841.91;4968826;28;4649;-57
2022/03/31 12:45:37;;;;;;;;;;;;;;;22.07;40.57;99837.75;4968826;28;4857;-57
2022/03/31 12:48:07;;;;;;;;;;;;;;;22.14;40.75;99841.50;4971381;28;4589;-58
2022/03/31 12:50:33;;;;;;;;;;;;;;;22.13;40.53;99829.25;4968320;28;4250;-58
2022/03/31 12:53:01;;;;;;;;;;;;;;;22.11;40.75;99837.84;4970983;28;4448;-59
2022/03/31 12:55:28;;;;;;;;;;;;;;;22.16;40.32;99836.50;4969848;28;4126;-58
2022/03/31 12:57:55;;;;;;;;;;;;;;;22.17;40.40;99831.47;4967617;28;4342;-58
2022/03/31 13:00:22;;;;;;;;;;;;;;;22.14;40.56;99822.03;4971939;28;4205;-58
2022/03/31 13:02:48;;;;;;;;;;;;;;;22.18;40.46;99825.03;4973068;28;4640;-58